createdAt,value
2023-05-26T00:02:51.640Z,8.07
2023-05-26T00:06:11.459Z,12.65
2023-05-26T00:09:34.173Z,9.10
2023-05-26T00:12:54.645Z,8.82
2023-05-26T00:16:44.460Z,7.50
2023-05-26T00:20:04.354Z,9.07
2023-05-26T00:23:38.585Z,7.72
2023-05-26T00:26:55.804Z,7.80
2023-05-26T00:30:23.790Z,7.95
2023-05-26T00:33:57.559Z,8.82
2023-05-26T00:37:20.948Z,8.20
2023-05-26T00:41:14.072Z,10.25
2023-05-26T00:44:52.796Z,8.93
2023-05-26T00:48:14.059Z,7.55
2023-05-26T00:51:47.788Z,9.05
2023-05-26T00:54:54.482Z,8.05
2023-05-26T00:58:33.446Z,10.00
2023-05-26T01:02:05.354Z,8.98
2023-05-26T01:06:08.492Z,9.00
2023-05-26T01:09:36.689Z,8.68
2023-05-26T01:12:51.778Z,8.50
2023-05-26T01:16:13.685Z,8.45
2023-05-26T01:19:54.551Z,8.60
2023-05-26T01:23:30.446Z,10.65
2023-05-26T01:27:26.218Z,9.65
2023-05-26T01:30:49.927Z,8.98
2023-05-26T01:34:11.623Z,11.45
2023-05-26T01:37:39.841Z,10.00
2023-05-26T01:41:11.872Z,8.20
2023-05-26T01:44:44.485Z,12.15
2023-05-26T01:48:15.589Z,9.15
2023-05-26T01:51:48.018Z,8.30
2023-05-26T01:55:27.865Z,10.40
2023-05-26T01:58:56.395Z,8.80
2023-05-26T02:02:15.858Z,11.05
2023-05-26T02:05:49.945Z,9.77
2023-05-26T02:09:08.414Z,10.18
2023-05-26T02:12:17.592Z,16.10
2023-05-26T02:15:56.362Z,10.27
2023-05-26T02:19:17.052Z,11.52
2023-05-26T02:22:50.241Z,10.02
2023-05-26T02:26:18.140Z,11.18
2023-05-26T02:29:46.903Z,10.60
2023-05-26T02:33:23.087Z,11.50
2023-05-26T02:37:04.021Z,11.70
2023-05-26T02:40:20.488Z,8.27
2023-05-26T02:43:25.276Z,10.48
2023-05-26T02:47:29.174Z,13.13
2023-05-26T02:51:34.858Z,10.27
2023-05-26T02:55:13.889Z,15.80
2023-05-26T02:58:43.193Z,8.82
2023-05-26T03:02:11.908Z,9.18
2023-05-26T03:05:29.936Z,12.13
2023-05-26T03:09:34.390Z,9.35
2023-05-26T03:12:52.762Z,8.32
2023-05-26T03:16:02.179Z,13.32
2023-05-26T03:19:43.680Z,9.50
2023-05-26T03:23:28.735Z,11.43
2023-05-26T03:27:12.610Z,9.30
2023-05-26T03:30:45.016Z,10.45
2023-05-26T03:34:10.635Z,9.15
2023-05-26T03:37:31.211Z,13.82
2023-05-26T03:41:07.028Z,9.27
2023-05-26T03:44:49.104Z,10.35
2023-05-26T03:48:21.602Z,11.75
2023-05-26T03:51:44.480Z,10.43
2023-05-26T03:55:13.339Z,9.20
2023-05-26T03:58:45.139Z,13.20
2023-05-26T04:02:03.165Z,8.65
2023-05-26T04:05:30.308Z,13.27
2023-05-26T04:09:20.564Z,11.02
2023-05-26T04:13:04.043Z,11.52
2023-05-26T04:16:37.630Z,9.25
2023-05-26T04:19:46.074Z,10.98
2023-05-26T04:23:03.998Z,8.55
2023-05-26T04:26:49.385Z,10.63
2023-05-26T04:29:54.290Z,9.90
2023-05-26T04:33:10.936Z,8.60
2023-05-26T04:36:17.846Z,7.95
2023-05-26T04:39:49.466Z,9.13
2023-05-26T04:42:59.392Z,10.25
2023-05-26T04:46:25.440Z,10.50
2023-05-26T04:49:47.179Z,11.43
2023-05-26T04:53:13.787Z,14.95
2023-05-26T04:56:23.237Z,10.63
2023-05-26T05:00:03.718Z,11.50
2023-05-26T05:03:40.347Z,12.50
2023-05-26T05:06:45.691Z,12.70
2023-05-26T05:09:48.906Z,10.05
2023-05-26T05:12:59.667Z,17.08
2023-05-26T05:16:38.515Z,11.05
2023-05-26T05:19:59.233Z,9.35
2023-05-26T05:23:29.070Z,10.88
2023-05-26T05:30:47.894Z,12.15
2023-05-26T05:34:29.918Z,11.65
2023-05-26T05:38:13.785Z,13.27
2023-05-26T05:41:59.943Z,9.65
2023-05-26T05:45:41.689Z,13.00
2023-05-26T05:49:38.201Z,9.27
2023-05-26T05:53:28.994Z,12.27
2023-05-26T05:57:15.793Z,9.10
2023-05-26T06:00:36.848Z,11.12
2023-05-26T06:04:06.210Z,7.78
2023-05-26T06:07:10.572Z,7.90
2023-05-26T06:10:53.776Z,7.28
2023-05-26T06:14:30.792Z,8.48
2023-05-26T06:18:11.190Z,8.40
2023-05-26T06:21:52.064Z,7.32
2023-05-26T06:25:27.502Z,7.85
2023-05-26T06:29:12.751Z,7.32
2023-05-26T06:32:54.332Z,7.03
2023-05-26T06:39:59.618Z,5.95
2023-05-26T06:43:06.605Z,7.45
2023-05-26T06:46:44.599Z,7.00
2023-05-26T06:50:19.689Z,6.68
2023-05-26T06:53:24.641Z,5.50
2023-05-26T07:00:59.323Z,6.53
2023-05-26T07:07:11.265Z,5.65
2023-05-26T07:10:14.480Z,6.07
2023-05-26T07:13:42.222Z,6.10
2023-05-26T07:16:48.928Z,8.80
2023-05-26T07:19:52.686Z,6.00
2023-05-26T07:22:55.986Z,5.22
2023-05-26T07:26:00.188Z,5.57
2023-05-26T07:29:03.483Z,8.27
2023-05-26T07:32:07.763Z,6.47
2023-05-26T07:35:19.158Z,6.28
2023-05-26T07:50:39.452Z,7.43
2023-05-26T08:19:38.456Z,8.40
2023-05-26T08:23:52.589Z,6.78
2023-05-26T08:28:06.325Z,7.68
2023-05-26T08:32:37.191Z,5.75
2023-05-26T10:46:08.772Z,4.72
2023-05-26T10:49:27.268Z,5.93
2023-05-26T10:53:26.831Z,5.37
2023-05-26T10:57:46.213Z,7.35
2023-05-26T11:01:47.981Z,4.70
2023-05-26T11:05:36.130Z,6.20
2023-05-26T11:08:49.276Z,10.20
2023-05-26T11:12:15.773Z,6.37
2023-05-26T11:15:59.584Z,5.18
2023-05-26T11:19:09.143Z,4.80
2023-05-26T11:22:14.464Z,4.93
2023-05-26T11:25:17.594Z,4.78
2023-05-26T11:28:22.653Z,5.72
2023-05-26T11:31:28.907Z,5.22
2023-05-26T11:34:31.507Z,6.25
2023-05-26T11:37:37.306Z,6.37
2023-05-26T11:40:42.155Z,5.62
2023-05-26T11:44:12.452Z,6.07
2023-05-26T11:47:22.507Z,6.60
2023-05-26T11:50:28.700Z,8.90
2023-05-26T11:53:33.824Z,6.43
2023-05-26T11:56:37.238Z,5.75
2023-05-26T11:59:40.788Z,4.22
2023-05-26T12:02:45.193Z,6.35
2023-05-26T12:05:48.822Z,6.05
2023-05-26T12:08:52.465Z,6.30
2023-05-26T12:11:58.851Z,7.55
2023-05-26T12:15:14.759Z,7.03
2023-05-26T12:18:37.985Z,5.35
2023-05-26T12:21:43.776Z,4.40
2023-05-26T12:24:47.853Z,4.57
2023-05-26T12:27:50.932Z,4.18
2023-05-26T12:30:58.456Z,5.40
2023-05-26T12:34:01.691Z,6.57
2023-05-26T12:37:05.952Z,4.07
2023-05-26T12:40:10.174Z,6.18
2023-05-26T12:43:14.241Z,5.95
2023-05-26T12:46:26.054Z,5.80
2023-05-26T12:49:58.512Z,4.25
2023-05-26T12:53:02.110Z,5.75
2023-05-26T12:56:08.038Z,6.40
2023-05-26T12:59:37.952Z,4.68
2023-05-26T13:02:41.663Z,5.97
2023-05-26T13:06:17.327Z,6.22
2023-05-26T13:09:21.019Z,4.90
2023-05-26T13:12:25.168Z,5.37
2023-05-26T13:15:31.033Z,4.80
2023-05-26T13:18:34.278Z,5.03
2023-05-26T13:21:39.075Z,6.07
2023-05-26T13:24:44.222Z,5.62
2023-05-26T13:30:50.797Z,5.70
2023-05-26T13:33:55.041Z,6.40
2023-05-26T13:36:58.612Z,4.82
2023-05-26T13:40:02.604Z,6.70
2023-05-26T13:43:09.828Z,5.30
2023-05-26T13:46:13.133Z,7.53
2023-05-26T13:49:16.146Z,5.05
2023-05-26T13:52:20.417Z,4.60
2023-05-26T13:55:27.204Z,5.20
2023-05-26T13:58:39.035Z,7.07
2023-05-26T14:01:42.075Z,7.03
2023-05-26T14:04:49.749Z,6.65
2023-05-26T14:07:59.478Z,7.15
2023-05-26T14:11:35.236Z,9.63
2023-05-26T14:14:40.620Z,7.40
2023-05-26T14:17:50.374Z,5.30
2023-05-26T14:21:39.063Z,6.12
2023-05-26T14:24:27.210Z,5.97
2023-05-26T14:27:37.325Z,5.80
2023-05-26T14:30:41.288Z,5.97
2023-05-26T14:33:44.867Z,7.45
2023-05-26T14:36:48.943Z,8.07
2023-05-26T14:39:55.190Z,6.43
2023-05-26T14:42:58.748Z,6.07
2023-05-26T14:46:02.655Z,6.85
2023-05-26T14:49:06.553Z,5.80
2023-05-26T14:52:11.096Z,6.68
2023-05-26T14:55:14.310Z,5.37
2023-05-26T14:58:18.572Z,8.10
2023-05-26T15:01:22.100Z,6.05
2023-05-26T15:04:27.546Z,5.93
2023-05-26T15:07:33.159Z,5.68
2023-05-26T15:18:13.055Z,5.97
2023-05-26T15:22:00.064Z,5.97
2023-05-26T15:25:48.269Z,7.22
2023-05-26T15:29:24.810Z,7.35
2023-05-26T15:33:03.192Z,5.55
2023-05-26T15:36:54.311Z,5.18
2023-05-26T15:40:36.473Z,7.57
2023-05-26T15:44:16.093Z,6.90
2023-05-26T15:48:00.311Z,5.00
2023-05-26T15:51:39.921Z,6.68
2023-05-26T15:55:27.459Z,7.03
2023-05-26T15:59:03.484Z,4.40
2023-05-26T16:02:44.195Z,9.50
2023-05-26T16:06:20.374Z,4.87
2023-05-26T16:18:14.104Z,4.65
2023-05-26T16:21:59.200Z,5.03
2023-05-26T16:26:20.156Z,5.62
2023-05-26T16:29:40.018Z,6.43
2023-05-26T16:33:20.764Z,5.35
2023-05-26T16:37:47.210Z,5.00
2023-05-26T16:41:28.974Z,4.00
2023-05-26T16:45:23.798Z,5.47
2023-05-26T16:48:46.647Z,7.65
2023-05-26T16:52:33.807Z,7.07
2023-05-26T16:56:13.323Z,5.53
2023-05-26T16:59:54.982Z,4.93
2023-05-26T17:03:51.923Z,5.70
2023-05-26T17:07:09.304Z,4.57
2023-05-26T17:10:57.835Z,6.18
2023-05-26T17:14:37.036Z,5.95
2023-05-26T17:18:18.909Z,4.35
2023-05-26T17:21:59.818Z,6.12
2023-05-26T17:25:37.319Z,4.65
2023-05-26T17:33:17.542Z,5.53
2023-05-26T17:36:55.218Z,5.72
2023-05-26T17:40:33.842Z,5.25
2023-05-26T17:44:03.614Z,5.62
2023-05-26T17:47:11.118Z,13.70
2023-05-26T17:51:11.105Z,9.93
2023-05-26T17:54:53.681Z,5.20
2023-05-26T17:58:01.282Z,4.70
2023-05-26T18:01:24.618Z,9.02
2023-05-26T18:05:15.573Z,5.73
2023-05-26T18:09:03.178Z,5.93
2023-05-26T18:12:36.087Z,4.87
2023-05-26T18:16:17.562Z,4.28
2023-05-26T18:19:38.579Z,7.25
2023-05-26T18:23:03.268Z,5.65
2023-05-26T18:26:24.562Z,6.30
2023-05-26T18:30:03.744Z,5.15
2023-05-26T18:33:35.177Z,5.70
2023-05-26T18:37:42.485Z,6.80
2023-05-26T18:41:27.827Z,7.35
2023-05-26T18:44:58.324Z,6.05
2023-05-26T18:48:45.553Z,4.75
2023-05-26T18:52:43.197Z,4.93
2023-05-26T18:56:07.592Z,5.10
2023-05-26T18:59:18.385Z,7.72
2023-05-26T19:02:51.871Z,5.40
2023-05-26T19:06:17.284Z,5.30
2023-05-26T19:09:48.075Z,8.25
2023-05-26T19:13:51.530Z,5.35
2023-05-26T19:17:31.061Z,6.00
2023-05-26T19:20:56.642Z,7.05
2023-05-26T19:24:35.816Z,8.40
2023-05-26T19:28:03.751Z,11.85
2023-05-26T19:31:50.228Z,16.42
2023-05-26T19:38:57.529Z,14.20
2023-05-26T19:42:00.494Z,14.63
2023-05-26T19:45:38.061Z,19.40
2023-05-26T19:49:05.733Z,11.45
2023-05-26T19:52:42.517Z,8.45
2023-05-26T19:56:14.427Z,9.30
2023-05-26T19:59:51.761Z,7.72
2023-05-26T20:03:20.115Z,9.60
2023-05-26T20:06:44.275Z,6.72
2023-05-26T20:14:26.859Z,6.62
2023-05-26T20:18:21.815Z,18.98
2023-05-26T20:22:05.701Z,9.00
2023-05-26T20:54:34.039Z,7.72
2023-05-26T20:58:04.233Z,6.97
2023-05-26T21:01:29.323Z,8.45
2023-05-26T21:04:46.639Z,9.27
2023-05-26T21:08:03.419Z,7.80
2023-05-26T21:11:06.517Z,7.85
2023-05-26T21:14:12.191Z,9.05
2023-05-26T21:17:37.935Z,7.50
2023-05-26T21:21:11.807Z,7.40
2023-05-26T21:24:14.642Z,10.70
2023-05-26T21:27:39.374Z,7.00
2023-05-26T21:30:46.213Z,6.65
2023-05-26T21:34:09.625Z,8.52
2023-05-26T21:37:16.513Z,6.22
2023-05-26T21:41:04.979Z,6.07
2023-05-26T21:44:14.628Z,6.55
2023-05-26T21:47:44.793Z,5.45
2023-05-26T21:51:19.239Z,7.00
2023-05-26T21:54:43.024Z,5.32
2023-05-26T21:58:06.474Z,5.43
2023-05-26T22:01:32.276Z,5.10
2023-05-26T22:04:39.725Z,5.45
2023-05-26T22:07:44.217Z,6.90
2023-05-26T22:10:48.180Z,5.87
2023-05-26T22:13:55.623Z,5.40
2023-05-26T22:17:21.094Z,6.37
2023-05-26T22:20:26.229Z,5.82
2023-05-26T22:23:58.469Z,5.00
2023-05-26T22:27:01.825Z,3.92
2023-05-26T22:30:07.929Z,7.45
2023-05-26T22:33:11.281Z,4.40
2023-05-26T22:36:15.516Z,5.95
2023-05-26T22:39:22.995Z,5.00
2023-05-26T22:42:45.619Z,5.37
2023-05-26T22:46:07.728Z,5.97
2023-05-26T22:49:29.043Z,4.93
2023-05-26T22:53:04.363Z,4.82
2023-05-26T22:56:25.207Z,5.50
2023-05-26T22:59:29.720Z,5.47
2023-05-26T23:02:53.013Z,4.35
2023-05-26T23:06:09.838Z,4.03
2023-05-26T23:09:31.776Z,5.45
2023-05-26T23:12:53.294Z,5.70
2023-05-26T23:16:27.281Z,4.45
2023-05-26T23:19:45.546Z,4.62
2023-05-26T23:23:05.682Z,4.53
2023-05-26T23:26:23.634Z,5.10
2023-05-26T23:29:44.004Z,6.47
2023-05-26T23:33:24.239Z,4.03
2023-05-26T23:36:46.657Z,5.87
2023-05-26T23:40:14.140Z,6.97
2023-05-26T23:43:40.884Z,5.93
2023-05-26T23:46:47.696Z,6.70
2023-05-26T23:50:17.001Z,6.97
2023-05-26T23:53:38.199Z,5.15
2023-05-26T23:57:03.980Z,7.32
